Time;durP1;ratioP1;P1;durP2;ratioP2;P2;SDS_P1;SDS_P2;PMS_P1;PMS_P2;Temp;Humidity;BMP_temperature;BMP_pressure;BME280_temperature;BME280_humidity;BME280_pressure;Samples;Min_cycle;Max_cycle;Signal;HPM_P1;HPM_P2
2023/12/21 00:00:10;;;;;;;132.02;22.60;;;3.10;99.90;;;;;;5035371;28;20035;-91
2023/12/21 00:02:36;;;;;;;263.05;29.95;;;3.10;99.90;;;;;;5035592;28;20032;-91
2023/12/21 00:05:01;;;;;;;165.57;24.38;;;3.00;99.90;;;;;;5035007;28;20029;-90
2023/12/21 00:07:27;;;;;;;371.58;36.78;;;3.10;99.90;;;;;;5035571;28;20372;-91
2023/12/21 00:09:54;;;;;;;377.33;36.55;;;3.10;99.90;;;;;;5035428;28;20399;-90
2023/12/21 00:12:20;;;;;;;352.45;32.78;;;3.10;99.90;;;;;;5035112;28;20128;-91
2023/12/21 00:14:45;;;;;;;182.77;23.00;;;3.10;99.90;;;;;;5033664;28;20037;-91
2023/12/21 00:17:11;;;;;;;489.17;42.92;;;3.10;99.90;;;;;;5033843;28;20031;-90
2023/12/21 00:19:36;;;;;;;351.20;34.90;;;3.10;99.90;;;;;;5034479;28;20030;-91
2023/12/21 00:22:02;;;;;;;660.90;62.65;;;3.10;99.90;;;;;;5034699;28;20036;-91
2023/12/21 00:24:28;;;;;;;387.92;34.35;;;3.10;99.90;;;;;;5034067;28;20029;-91
2023/12/21 00:26:54;;;;;;;294.95;28.83;;;3.10;99.90;;;;;;5034126;28;20030;-91
2023/12/21 00:29:19;;;;;;;619.42;48.60;;;3.10;99.90;;;;;;5033111;28;20032;-90
2023/12/21 00:31:45;;;;;;;1040.95;90.57;;;3.10;99.90;;;;;;5034016;28;20469;-90
2023/12/21 00:34:10;;;;;;;426.83;39.85;;;3.10;99.90;;;;;;5034107;28;20392;-90
2023/12/21 00:36:36;;;;;;;61.63;14.80;;;3.10;99.90;;;;;;5034669;28;20083;-88
2023/12/21 00:39:02;;;;;;;29.35;10.95;;;3.10;99.90;;;;;;5038161;28;20067;-90
2023/12/21 00:41:28;;;;;;;32.28;10.35;;;3.10;99.90;;;;;;5038220;28;20048;-91
2023/12/21 00:43:54;;;;;;;29.70;10.98;;;3.10;99.90;;;;;;5038457;28;20033;-90
2023/12/21 00:46:19;;;;;;;17.77;8.85;;;3.10;99.90;;;;;;5032208;28;20018;-90
2023/12/21 00:49:16;;;;;;;19.65;9.50;;;3.10;99.90;;;;;;5002206;28;20029;-92
2023/12/21 00:51:41;;;;;;;15.68;7.30;;;3.10;99.90;;;;;;5002651;28;20088;-91
2023/12/21 00:54:07;;;;;;;17.77;8.73;;;3.10;99.90;;;;;;5034932;28;20124;-91
2023/12/21 00:56:33;;;;;;;15.15;7.90;;;3.10;99.90;;;;;;5001165;28;20041;-91
2023/12/21 00:58:59;;;;;;;10.88;6.68;;;3.10;99.90;;;;;;5036035;28;20121;-91
2023/12/21 01:01:26;;;;;;;14.55;8.30;;;3.10;99.90;;;;;;5019080;28;20493;-91
2023/12/21 01:03:52;;;;;;;13.48;8.02;;;3.10;99.90;;;;;;5020437;28;20030;-91
2023/12/21 01:06:18;;;;;;;14.48;8.60;;;3.10;99.90;;;;;;5002137;28;20029;-91
2023/12/21 01:08:44;;;;;;;13.45;8.52;;;3.10;99.90;;;;;;5035380;28;20080;-91
2023/12/21 01:11:10;;;;;;;19.05;9.45;;;3.20;99.90;;;;;;5002953;28;20034;-91
2023/12/21 01:13:37;;;;;;;96.38;15.77;;;3.10;99.90;;;;;;5033773;28;20395;-91
2023/12/21 01:16:03;;;;;;;55.25;13.30;;;3.10;99.90;;;;;;5002278;28;20030;-91
2023/12/21 01:18:28;;;;;;;298.45;30.00;;;3.10;99.90;;;;;;5001243;28;20124;-90
2023/12/21 01:20:54;;;;;;;292.23;30.88;;;3.10;99.90;;;;;;5000070;28;20441;-91
2023/12/21 01:23:20;;;;;;;25.38;11.18;;;3.20;99.90;;;;;;5001186;28;20398;-90
2023/12/21 01:25:45;;;;;;;73.85;14.38;;;3.20;99.90;;;;;;5000317;28;20516;-91
2023/12/21 01:28:12;;;;;;;43.70;15.30;;;3.20;99.90;;;;;;5000849;28;20022;-90
2023/12/21 01:30:37;;;;;;;23.17;10.60;;;3.20;99.90;;;;;;5017634;28;20036;-90
2023/12/21 01:33:03;;;;;;;25.13;10.93;;;3.20;99.90;;;;;;5016371;28;20037;-92
2023/12/21 01:35:29;;;;;;;25.48;11.88;;;3.20;99.90;;;;;;5017340;28;20501;-92
2023/12/21 01:37:55;;;;;;;21.67;12.38;;;3.20;99.90;;;;;;5001939;28;20037;-91
2023/12/21 01:40:23;;;;;;;18.40;10.98;;;3.20;99.90;;;;;;5001122;28;20030;-91
2023/12/21 01:42:51;;;;;;;22.10;10.48;;;3.20;99.90;;;;;;5001525;28;20080;-91
2023/12/21 01:45:17;;;;;;;52.38;14.00;;;3.20;99.90;;;;;;5001849;28;20037;-92
2023/12/21 01:47:46;;;;;;;36.20;12.20;;;3.30;99.90;;;;;;5001486;28;20478;-91
2023/12/21 01:50:12;;;;;;;200.38;22.73;;;3.30;99.90;;;;;;5017414;28;20029;-91
2023/12/21 01:52:39;;;;;;;618.17;61.60;;;3.30;99.90;;;;;;5000605;28;20037;-91
2023/12/21 01:55:06;;;;;;;695.20;59.05;;;3.30;99.90;;;;;;5017441;28;20088;-91
2023/12/21 01:57:32;;;;;;;431.25;38.38;;;3.30;99.90;;;;;;5000225;28;20033;-92
2023/12/21 01:59:58;;;;;;;732.85;61.25;;;3.30;99.90;;;;;;5017027;28;20128;-91
2023/12/21 02:02:24;;;;;;;651.63;55.58;;;3.30;99.90;;;;;;5017412;28;20465;-91
2023/12/21 02:04:51;;;;;;;410.20;36.00;;;3.30;99.90;;;;;;5000616;28;20084;-91
2023/12/21 02:07:17;;;;;;;449.48;40.97;;;3.30;99.90;;;;;;5000695;28;20496;-91
2023/12/21 02:09:43;;;;;;;555.90;52.28;;;3.30;99.90;;;;;;5016614;28;20079;-91
2023/12/21 02:12:09;;;;;;;517.05;50.42;;;3.30;99.90;;;;;;5000705;28;20033;-91
2023/12/21 02:14:34;;;;;;;491.92;46.42;;;3.30;99.90;;;;;;5001179;28;20033;-92
2023/12/21 02:17:05;;;;;;;253.82;30.05;;;3.30;99.90;;;;;;5000637;28;20026;-91
2023/12/21 02:19:32;;;;;;;265.65;29.88;;;3.30;99.90;;;;;;4999921;28;20397;-91
2023/12/21 02:22:01;;;;;;;330.05;34.72;;;3.30;99.90;;;;;;5001401;28;20053;-92
2023/12/21 02:24:27;;;;;;;133.90;18.48;;;3.30;99.90;;;;;;5016367;28;20025;-90
2023/12/21 02:26:53;;;;;;;120.15;20.05;;;3.40;99.90;;;;;;5000129;28;20120;-92
2023/12/21 02:29:18;;;;;;;269.73;31.27;;;3.40;99.90;;;;;;5017071;28;20473;-92
2023/12/21 02:31:44;;;;;;;354.75;35.20;;;3.40;99.90;;;;;;5017681;28;20034;-92
2023/12/21 02:34:10;;;;;;;531.08;47.70;;;3.40;99.90;;;;;;5019062;28;20022;-92
2023/12/21 02:36:35;;;;;;;397.65;37.83;;;3.40;99.90;;;;;;5016864;28;20118;-92
2023/12/21 02:39:01;;;;;;;432.55;34.92;;;3.40;99.90;;;;;;5000201;28;20022;-91
2023/12/21 02:41:27;;;;;;;266.00;28.23;;;3.40;99.90;;;;;;4999414;28;20030;-91
2023/12/21 02:43:53;;;;;;;98.43;18.30;;;3.40;99.90;;;;;;5000638;28;20149;-91
2023/12/21 02:46:25;;;;;;;111.63;18.95;;;3.40;99.90;;;;;;5015857;28;20159;-92
2023/12/21 02:48:51;;;;;;;96.55;16.08;;;3.50;99.90;;;;;;5016207;28;20465;-91
2023/12/21 02:51:17;;;;;;;306.40;28.55;;;3.40;99.90;;;;;;4999590;28;20124;-92
2023/12/21 02:53:43;;;;;;;499.65;42.80;;;3.40;99.90;;;;;;5016170;28;20033;-91
2023/12/21 02:56:09;;;;;;;663.20;54.42;;;3.40;99.90;;;;;;5016454;28;20033;-91
2023/12/21 02:58:36;;;;;;;298.55;28.77;;;3.40;99.90;;;;;;4999721;28;20049;-91
2023/12/21 03:01:02;;;;;;;406.20;37.38;;;3.40;99.90;;;;;;5031876;28;20034;-91
2023/12/21 03:03:27;;;;;;;526.28;45.42;;;3.40;99.90;;;;;;5016028;28;20033;-92
2023/12/21 03:05:53;;;;;;;678.00;55.47;;;3.40;99.90;;;;;;5016711;28;20026;-91
2023/12/21 03:08:20;;;;;;;766.22;60.20;;;3.50;99.90;;;;;;4999869;28;20084;-91
2023/12/21 03:10:45;;;;;;;254.25;24.90;;;3.50;99.90;;;;;;4999794;28;20026;-91
2023/12/21 03:13:11;;;;;;;626.58;47.13;;;3.50;99.90;;;;;;5000117;28;20509;-92
2023/12/21 03:15:37;;;;;;;710.03;54.88;;;3.50;99.90;;;;;;5015017;28;20717;-92
2023/12/21 03:18:03;;;;;;;691.28;60.03;;;3.50;99.90;;;;;;5016739;28;20049;-89
2023/12/21 03:20:28;;;;;;;769.53;64.22;;;3.50;99.90;;;;;;5015228;28;20444;-91
2023/12/21 03:22:54;;;;;;;667.05;52.22;;;3.50;99.90;;;;;;4999044;28;20041;-91
2023/12/21 03:25:20;;;;;;;30.27;9.20;;;3.50;99.90;;;;;;5015848;28;20033;-91
2023/12/21 03:27:47;;;;;;;23.50;9.60;;;3.50;99.90;;;;;;5016054;28;20093;-92
2023/12/21 03:30:13;;;;;;;17.42;8.43;;;3.60;99.90;;;;;;4998770;28;20065;-91
2023/12/21 03:32:39;;;;;;;47.25;10.10;;;3.60;99.90;;;;;;5014897;28;20063;-91
2023/12/21 03:35:07;;;;;;;60.60;12.20;;;3.60;99.90;;;;;;4999509;28;20021;-91
2023/12/21 03:37:33;;;;;;;57.83;11.60;;;3.60;99.90;;;;;;5015351;28;20038;-91
2023/12/21 03:39:59;;;;;;;429.48;32.33;;;3.60;99.90;;;;;;4997456;28;20371;-91
2023/12/21 03:42:24;;;;;;;506.08;33.83;;;3.60;99.90;;;;;;5015654;28;20081;-91
2023/12/21 03:44:50;;;;;;;510.40;34.65;;;3.60;99.90;;;;;;5016022;28;20469;-91
2023/12/21 03:47:16;;;;;;;117.18;13.77;;;3.60;99.90;;;;;;4998551;28;20076;-91
2023/12/21 03:49:42;;;;;;;15.43;7.82;;;3.60;99.90;;;;;;4999112;28;20041;-92
2023/12/21 03:52:08;;;;;;;85.07;10.40;;;3.60;99.90;;;;;;5015315;28;20460;-92
2023/12/21 03:54:33;;;;;;;31.40;8.20;;;3.60;99.90;;;;;;5017129;28;20033;-92
2023/12/21 03:56:59;;;;;;;121.35;13.32;;;3.70;99.90;;;;;;5031920;28;20058;-92
2023/12/21 03:59:26;;;;;;;99.80;10.85;;;3.70;99.90;;;;;;5015391;28;20413;-91
2023/12/21 04:01:52;;;;;;;474.75;33.03;;;3.60;99.90;;;;;;5015435;28;20034;-92
2023/12/21 04:05:02;;;;;;;603.47;36.70;;;3.70;99.90;;;;;;5015777;28;20026;-91
2023/12/21 04:07:27;;;;;;;700.05;50.38;;;3.70;99.90;;;;;;5015630;28;20500;-92
2023/12/21 04:09:53;;;;;;;621.40;41.55;;;3.70;99.90;;;;;;5016038;28;20037;-91
2023/12/21 04:12:19;;;;;;;327.33;25.40;;;3.70;99.90;;;;;;5017731;28;20421;-91
2023/12/21 04:14:44;;;;;;;153.73;15.60;;;3.70;99.90;;;;;;5004209;28;20025;-91
2023/12/21 04:17:10;;;;;;;158.70;15.27;;;3.70;99.90;;;;;;5003971;28;20038;-91
2023/12/21 04:19:35;;;;;;;462.73;30.70;;;3.70;99.90;;;;;;5002443;28;20034;-91
2023/12/21 04:22:01;;;;;;;707.55;46.45;;;3.70;99.90;;;;;;5018864;28;20029;-92
2023/12/21 04:24:27;;;;;;;573.92;37.40;;;3.70;99.90;;;;;;5018624;28;20037;-91
2023/12/21 04:26:52;;;;;;;337.63;23.17;;;3.70;99.90;;;;;;5002239;28;20033;-91
2023/12/21 04:29:18;;;;;;;562.72;40.67;;;3.70;99.90;;;;;;5003250;28;20026;-92
2023/12/21 04:31:44;;;;;;;225.20;19.30;;;3.70;99.90;;;;;;5003018;28;20038;-91
2023/12/21 04:34:10;;;;;;;314.98;25.85;;;3.70;99.90;;;;;;5002705;28;20389;-91
2023/12/21 04:36:36;;;;;;;273.63;24.75;;;3.70;99.90;;;;;;5019554;28;20026;-92
2023/12/21 04:39:03;;;;;;;337.00;27.65;;;3.70;99.90;;;;;;5003880;28;20044;-91
2023/12/21 04:41:29;;;;;;;399.00;28.33;;;3.70;99.90;;;;;;5003221;28;20113;-91
2023/12/21 04:43:54;;;;;;;379.80;27.55;;;3.70;99.90;;;;;;5003063;28;20084;-91
2023/12/21 04:46:20;;;;;;;279.48;24.33;;;3.70;99.90;;;;;;5004012;28;20508;-92
2023/12/21 04:48:46;;;;;;;242.82;21.35;;;3.70;99.90;;;;;;5019606;28;20025;-92
2023/12/21 04:51:17;;;;;;;282.80;25.25;;;3.80;99.90;;;;;;5002574;28;20097;-91
2023/12/21 04:53:43;;;;;;;80.30;14.95;;;3.80;99.90;;;;;;5002192;28;20038;-92
2023/12/21 04:56:09;;;;;;;131.20;16.40;;;3.80;99.90;;;;;;5002640;28;20069;-91
2023/12/21 04:58:37;;;;;;;596.75;52.42;;;3.80;99.90;;;;;;5002362;28;20417;-91
2023/12/21 05:01:05;;;;;;;373.50;36.40;;;3.80;99.90;;;;;;5002161;28;20077;-92
2023/12/21 05:03:30;;;;;;;156.10;17.27;;;3.80;99.90;;;;;;5019237;28;20084;-92
2023/12/21 05:05:56;;;;;;;505.50;43.33;;;3.80;99.90;;;;;;5002481;28;20030;-91
2023/12/21 05:08:22;;;;;;;501.63;44.55;;;3.80;99.90;;;;;;5025002;28;20037;-90
2023/12/21 05:10:48;;;;;;;276.30;29.13;;;3.90;99.90;;;;;;5037768;28;20024;-91
2023/12/21 05:13:13;;;;;;;326.25;29.40;;;3.90;99.90;;;;;;5021548;28;20038;-91
2023/12/21 05:15:39;;;;;;;538.63;46.05;;;3.90;99.90;;;;;;5020344;28;20036;-90
2023/12/21 05:18:05;;;;;;;728.42;59.33;;;3.90;99.90;;;;;;5014592;28;20481;-89
2023/12/21 05:20:49;;;;;;;957.10;79.53;;;3.90;99.90;;;;;;5002741;28;20034;-90
2023/12/21 05:23:15;;;;;;;613.97;60.08;;;3.90;99.90;;;;;;5003681;28;20440;-90
2023/12/21 05:25:40;;;;;;;880.90;73.05;;;3.90;99.90;;;;;;5002281;28;20025;-92
2023/12/21 05:28:06;;;;;;;775.50;61.20;;;3.90;99.90;;;;;;4997333;28;20026;-83
2023/12/21 05:30:33;;;;;;;996.20;88.60;;;3.90;99.90;;;;;;5009594;28;20088;-82
2023/12/21 05:32:58;;;;;;;1108.32;98.55;;;3.90;99.90;;;;;;4996613;28;20477;-83
2023/12/21 05:35:25;;;;;;;690.80;60.60;;;3.90;99.90;;;;;;4996972;28;20445;-81
2023/12/21 05:37:53;;;;;;;611.88;53.40;;;3.90;99.90;;;;;;4997290;28;20014;-81
2023/12/21 05:40:19;;;;;;;672.55;61.03;;;3.90;99.90;;;;;;4997470;28;20606;-81
2023/12/21 05:42:45;;;;;;;670.13;55.55;;;4.00;99.90;;;;;;4996724;28;20025;-81
2023/12/21 05:45:10;;;;;;;857.47;80.25;;;4.00;99.90;;;;;;4997242;28;20788;-81
2023/12/21 05:47:36;;;;;;;404.77;40.03;;;4.00;99.90;;;;;;5013563;28;20414;-84
2023/12/21 05:50:02;;;;;;;770.33;76.15;;;4.00;99.90;;;;;;4997315;28;20075;-84
2023/12/21 05:52:28;;;;;;;578.60;55.50;;;4.00;99.90;;;;;;4996668;28;20030;-83
2023/12/21 05:54:53;;;;;;;569.72;50.72;;;4.00;99.90;;;;;;4996217;28;20023;-83
2023/12/21 05:57:19;;;;;;;798.13;77.15;;;4.00;99.90;;;;;;4996175;28;20045;-83
2023/12/21 05:59:46;;;;;;;871.20;87.68;;;4.00;99.90;;;;;;5012494;28;20045;-83
2023/12/21 06:02:12;;;;;;;559.90;57.25;;;4.00;99.90;;;;;;5012810;28;20036;-83
2023/12/21 06:04:41;;;;;;;418.92;39.47;;;4.00;99.90;;;;;;4996386;28;20397;-81
2023/12/21 06:07:07;;;;;;;574.28;54.65;;;4.00;99.90;;;;;;4996465;28;20427;-82
2023/12/21 06:09:33;;;;;;;323.88;32.70;;;4.00;99.90;;;;;;4996105;28;20022;-82
2023/12/21 06:12:26;;;;;;;873.10;90.97;;;4.10;99.90;;;;;;4996252;28;20409;-81
2023/12/21 06:14:58;;;;;;;976.67;96.07;;;4.10;99.90;;;;;;5012411;28;20029;-82
2023/12/21 06:17:24;;;;;;;411.35;44.00;;;4.10;99.90;;;;;;4995627;28;20551;-81
2023/12/21 06:19:50;;;;;;;639.75;56.95;;;4.10;99.90;;;;;;4996465;28;20038;-81
2023/12/21 06:22:16;;;;;;;542.03;46.28;;;4.10;99.90;;;;;;4996365;28;20080;-82
2023/12/21 06:24:41;;;;;;;525.15;44.95;;;4.10;99.90;;;;;;5012512;28;20036;-81
2023/12/21 06:27:07;;;;;;;503.77;41.85;;;4.10;99.90;;;;;;4995942;28;20674;-81
2023/12/21 06:29:33;;;;;;;481.27;44.95;;;4.10;99.90;;;;;;5013346;28;20036;-84
2023/12/21 06:31:58;;;;;;;556.72;47.38;;;4.10;99.90;;;;;;4991112;28;20539;-81
2023/12/21 06:34:25;;;;;;;577.10;48.85;;;4.20;99.90;;;;;;4995122;28;20038;-81
2023/12/21 06:36:51;;;;;;;786.55;66.93;;;4.20;99.90;;;;;;4995634;28;20065;-81
2023/12/21 06:39:35;;;;;;;683.28;55.53;;;4.20;99.90;;;;;;4995084;28;20493;-82
2023/12/21 06:42:01;;;;;;;387.90;32.55;;;4.20;99.90;;;;;;4995985;28;20117;-82
2023/12/21 06:44:28;;;;;;;137.48;21.25;;;4.20;99.90;;;;;;4995133;28;20109;-81
2023/12/21 06:46:53;;;;;;;303.52;34.35;;;4.20;99.90;;;;;;4995278;28;20022;-83
2023/12/21 06:49:19;;;;;;;287.55;32.33;;;4.20;99.90;;;;;;4995444;28;20030;-83
2023/12/21 06:51:45;;;;;;;102.68;19.05;;;4.20;99.90;;;;;;4995542;28;20033;-84
2023/12/21 06:54:11;;;;;;;389.00;35.28;;;4.20;99.90;;;;;;5011777;28;20036;-82
2023/12/21 06:56:40;;;;;;;238.50;26.63;;;4.20;99.90;;;;;;4995541;28;20701;-83
2023/12/21 06:59:06;;;;;;;147.82;19.00;;;4.20;99.90;;;;;;4994926;28;20033;-83
2023/12/21 07:01:32;;;;;;;656.45;66.82;;;4.20;99.90;;;;;;4994658;28;20041;-83
2023/12/21 07:03:58;;;;;;;196.80;27.75;;;4.20;99.90;;;;;;5012518;28;20030;-82
2023/12/21 07:06:27;;;;;;;334.05;33.97;;;4.30;99.90;;;;;;5011334;28;20041;-83
2023/12/21 07:08:53;;;;;;;144.02;19.80;;;4.30;99.90;;;;;;4995120;28;20045;-83
2023/12/21 07:11:19;;;;;;;206.60;29.52;;;4.30;99.90;;;;;;4994913;28;20132;-83
2023/12/21 07:13:45;;;;;;;109.03;18.15;;;4.30;99.90;;;;;;4995335;28;20120;-83
2023/12/21 07:16:12;;;;;;;51.03;15.75;;;4.30;99.90;;;;;;4995048;28;20030;-83
2023/12/21 07:18:38;;;;;;;78.30;16.60;;;4.30;99.90;;;;;;4993909;28;20034;-83
2023/12/21 07:21:05;;;;;;;90.80;17.77;;;4.30;99.90;;;;;;4994801;28;20045;-83
2023/12/21 07:23:30;;;;;;;36.00;14.05;;;4.30;99.90;;;;;;4995220;28;20492;-83
2023/12/21 07:25:56;;;;;;;29.30;14.25;;;4.30;99.90;;;;;;4994809;28;20022;-83
2023/12/21 07:28:22;;;;;;;151.35;22.27;;;4.40;99.90;;;;;;4994747;28;20169;-83
2023/12/21 07:30:48;;;;;;;44.45;16.13;;;4.40;99.90;;;;;;4994990;28;20068;-83
2023/12/21 07:33:14;;;;;;;55.55;14.98;;;4.40;99.90;;;;;;4991996;28;20038;-83
2023/12/21 07:35:39;;;;;;;61.17;17.95;;;4.40;99.90;;;;;;4993454;28;20501;-83
2023/12/21 07:38:06;;;;;;;35.58;15.93;;;4.40;99.90;;;;;;5010198;28;20044;-83
2023/12/21 07:40:32;;;;;;;29.98;13.90;;;4.40;99.90;;;;;;5010447;28;20037;-83
2023/12/21 07:42:58;;;;;;;26.83;16.08;;;4.40;99.90;;;;;;5011807;28;20037;-83
2023/12/21 07:45:24;;;;;;;39.67;17.15;;;4.50;99.90;;;;;;4994198;28;20080;-83
2023/12/21 07:47:49;;;;;;;27.75;16.38;;;4.50;99.90;;;;;;4994349;28;20026;-83
2023/12/21 07:50:15;;;;;;;34.83;18.80;;;4.50;99.90;;;;;;4994209;28;20037;-83
2023/12/21 07:52:42;;;;;;;24.98;16.17;;;4.50;99.90;;;;;;4993609;28;20033;-82
2023/12/21 07:55:08;;;;;;;30.83;18.40;;;4.50;99.90;;;;;;4994372;28;20040;-83
2023/12/21 07:57:34;;;;;;;23.77;16.33;;;4.50;99.90;;;;;;4993688;28;20030;-83
2023/12/21 08:00:00;;;;;;;26.20;17.58;;;4.50;99.90;;;;;;4994152;28;20069;-83
2023/12/21 08:02:25;;;;;;;26.58;16.80;;;4.50;99.90;;;;;;4993908;28;20080;-82
2023/12/21 08:04:51;;;;;;;24.15;17.17;;;4.50;99.90;;;;;;4993862;28;20061;-83
2023/12/21 08:07:17;;;;;;;29.77;17.98;;;4.50;99.90;;;;;;4993787;28;20037;-83
2023/12/21 08:09:42;;;;;;;23.65;17.02;;;4.50;99.90;;;;;;4993130;28;20034;-83
2023/12/21 08:12:08;;;;;;;23.98;16.15;;;4.50;99.90;;;;;;5009901;28;20077;-82
2023/12/21 08:14:37;;;;;;;27.80;18.67;;;4.50;99.90;;;;;;4994133;28;20042;-83
2023/12/21 08:17:07;;;;;;;24.80;15.77;;;4.50;99.90;;;;;;4993908;28;20757;-83
2023/12/21 08:19:33;;;;;;;27.50;18.67;;;4.50;99.90;;;;;;5010523;28;20042;-83
2023/12/21 08:22:00;;;;;;;28.63;17.88;;;4.50;99.90;;;;;;4994178;28;20040;-83
2023/12/21 08:24:26;;;;;;;23.63;16.42;;;4.50;99.90;;;;;;4993738;28;20057;-83
2023/12/21 08:26:51;;;;;;;25.92;17.63;;;4.50;99.90;;;;;;4993417;28;20563;-83
2023/12/21 08:29:17;;;;;;;17.65;14.23;;;4.50;99.90;;;;;;5009866;28;20026;-84
2023/12/21 08:31:43;;;;;;;23.13;15.15;;;4.60;99.90;;;;;;4993957;28;20092;-83
2023/12/21 08:34:10;;;;;;;23.38;15.70;;;4.50;99.90;;;;;;5009215;28;20033;-83
2023/12/21 08:36:36;;;;;;;22.08;14.57;;;4.60;99.90;;;;;;4995835;28;20038;-82
2023/12/21 08:39:03;;;;;;;21.83;14.57;;;4.60;99.90;;;;;;5010095;28;20084;-83
2023/12/21 08:41:29;;;;;;;20.15;14.35;;;4.60;99.90;;;;;;4993184;28;20046;-83
2023/12/21 08:43:55;;;;;;;21.90;13.05;;;4.60;99.90;;;;;;4993279;28;20076;-83
2023/12/21 08:46:21;;;;;;;20.10;13.60;;;4.60;99.90;;;;;;4993903;28;20548;-83
2023/12/21 08:48:47;;;;;;;24.48;15.25;;;4.60;99.90;;;;;;5009655;28;20120;-83
2023/12/21 08:51:14;;;;;;;33.50;14.60;;;4.60;99.90;;;;;;5010126;28;20118;-83
2023/12/21 08:53:40;;;;;;;16.92;11.32;;;4.60;99.90;;;;;;4993620;28;20041;-83
2023/12/21 08:56:06;;;;;;;20.50;12.10;;;4.70;99.90;;;;;;4993933;28;20026;-82
2023/12/21 08:58:32;;;;;;;18.52;11.23;;;4.60;99.90;;;;;;5011303;28;20723;-83
2023/12/21 09:00:58;;;;;;;17.33;9.77;;;4.70;99.90;;;;;;4996352;28;20038;-83
2023/12/21 09:03:24;;;;;;;17.65;10.98;;;4.70;99.90;;;;;;5013380;28;20034;-83
2023/12/21 09:05:50;;;;;;;13.18;9.38;;;4.60;99.90;;;;;;4997210;28;20026;-83
2023/12/21 09:08:16;;;;;;;33.10;11.35;;;4.70;99.90;;;;;;4997239;28;20120;-83
2023/12/21 09:10:41;;;;;;;26.80;12.32;;;4.70;99.90;;;;;;5013065;28;20068;-83
2023/12/21 09:13:07;;;;;;;24.20;12.68;;;4.70;99.90;;;;;;4996387;28;20505;-83
2023/12/21 09:15:36;;;;;;;30.00;9.20;;;4.70;99.90;;;;;;4996065;28;20037;-83
2023/12/21 09:18:08;;;;;;;14.00;6.70;;;4.70;99.90;;;;;;4996067;28;20479;-83
2023/12/21 09:20:34;;;;;;;9.30;5.90;;;4.70;99.90;;;;;;4995778;28;20067;-82
2023/12/21 09:23:00;;;;;;;12.48;7.20;;;4.80;99.90;;;;;;4996645;28;20608;-84
2023/12/21 09:25:25;;;;;;;15.43;7.40;;;4.80;99.90;;;;;;4996485;28;20080;-83
2023/12/21 09:27:53;;;;;;;9.85;5.30;;;4.80;99.90;;;;;;4995971;28;20049;-83
2023/12/21 09:31:03;;;;;;;7.60;5.10;;;4.80;99.90;;;;;;5011910;28;20052;-82
2023/12/21 09:33:34;;;;;;;8.90;5.68;;;4.80;99.90;;;;;;5012522;28;20382;-83
2023/12/21 09:36:05;;;;;;;9.73;6.10;;;4.90;99.90;;;;;;5029120;28;20065;-82
2023/12/21 09:38:31;;;;;;;;;;;4.80;99.90;;;;;;5013670;28;20073;-83
2023/12/21 09:40:58;;;;;;;15.32;7.30;;;4.80;99.90;;;;;;5013063;28;19948;-83
2023/12/21 09:43:24;;;;;;;25.92;7.00;;;4.80;99.90;;;;;;5030147;28;20597;-83
2023/12/21 09:45:51;;;;;;;65.50;10.68;;;4.80;99.90;;;;;;4996722;28;20034;-83
2023/12/21 09:48:18;;;;;;;75.78;12.30;;;4.90;99.90;;;;;;5029658;28;20722;-83
2023/12/21 09:50:45;;;;;;;16.83;8.90;;;4.90;99.90;;;;;;4996817;28;20104;-83
2023/12/21 09:53:13;;;;;;;19.40;6.65;;;4.90;99.90;;;;;;4997017;28;20439;-83
2023/12/21 09:55:43;;;;;;;16.02;8.90;;;4.90;99.90;;;;;;4996623;28;20084;-83
2023/12/21 09:58:11;;;;;;;31.25;11.20;;;4.90;99.90;;;;;;4996665;28;20042;-83
2023/12/21 10:00:38;;;;;;;130.27;15.55;;;4.90;99.90;;;;;;5012585;28;20033;-83
2023/12/21 10:03:05;;;;;;;25.67;8.65;;;4.90;99.90;;;;;;5012198;28;20033;-83
2023/12/21 10:05:31;;;;;;;44.55;8.90;;;5.00;99.90;;;;;;5028244;28;20030;-82
2023/12/21 10:07:58;;;;;;;124.13;14.73;;;5.00;99.90;;;;;;4995687;28;20037;-83
2023/12/21 10:10:27;;;;;;;213.85;18.77;;;5.00;99.90;;;;;;4995086;28;20045;-83
2023/12/21 10:12:53;;;;;;;120.18;19.80;;;5.00;99.90;;;;;;5012427;28;20798;-83
2023/12/21 10:15:19;;;;;;;18.02;8.10;;;5.00;99.90;;;;;;4995859;28;20099;-83
2023/12/21 10:17:45;;;;;;;18.30;8.18;;;5.00;99.90;;;;;;4996534;28;20068;-83
2023/12/21 10:20:11;;;;;;;25.88;9.02;;;5.00;99.90;;;;;;4996022;28;20030;-83
2023/12/21 10:22:44;;;;;;;11.50;7.85;;;4.90;99.90;;;;;;4996277;28;20560;-83
2023/12/21 10:25:10;;;;;;;20.80;8.30;;;5.10;99.90;;;;;;5012326;28;20030;-83
2023/12/21 10:27:37;;;;;;;39.10;11.02;;;5.00;99.90;;;;;;4995962;28;20025;-83
2023/12/21 10:30:04;;;;;;;14.85;10.00;;;5.00;99.90;;;;;;4995677;28;20034;-83
2023/12/21 10:32:30;;;;;;;18.83;11.30;;;5.00;99.90;;;;;;5028841;28;20034;-83
2023/12/21 10:34:59;;;;;;;14.23;9.70;;;5.00;99.90;;;;;;4995730;28;20048;-83
2023/12/21 10:37:25;;;;;;;14.95;10.35;;;5.10;99.90;;;;;;4995513;28;20091;-83
2023/12/21 10:39:52;;;;;;;13.95;10.18;;;5.10;99.90;;;;;;4995834;28;20037;-83
2023/12/21 10:42:19;;;;;;;13.75;10.27;;;5.10;99.90;;;;;;5011610;28;20057;-83
2023/12/21 10:44:47;;;;;;;23.83;10.95;;;5.10;99.90;;;;;;5011609;28;20108;-83
2023/12/21 10:47:14;;;;;;;14.68;10.38;;;5.10;99.90;;;;;;4995090;28;20048;-83
2023/12/21 10:49:43;;;;;;;23.55;10.38;;;5.10;99.90;;;;;;4995053;28;20040;-84
2023/12/21 10:52:10;;;;;;;16.05;11.07;;;5.10;99.90;;;;;;4995593;28;20034;-83
2023/12/21 10:54:37;;;;;;;13.15;9.27;;;5.10;99.90;;;;;;4994744;28;20046;-83
2023/12/21 10:57:05;;;;;;;16.50;8.80;;;5.10;99.90;;;;;;5028301;28;20038;-82
2023/12/21 10:59:32;;;;;;;12.45;8.73;;;5.10;99.90;;;;;;5027817;28;20477;-83
2023/12/21 11:01:59;;;;;;;9.20;6.78;;;5.20;99.90;;;;;;4994985;28;20694;-83
2023/12/21 11:04:27;;;;;;;12.82;7.70;;;5.20;99.90;;;;;;4994227;28;20080;-84
2023/12/21 11:06:54;;;;;;;10.55;7.50;;;5.20;99.90;;;;;;4993831;28;20558;-83
2023/12/21 11:09:31;;;;;;;7.82;5.75;;;5.20;99.90;;;;;;4994859;28;20034;-83
2023/12/21 11:12:19;;;;;;;7.75;5.43;;;5.20;99.90;;;;;;4994154;28;20044;-82
2023/12/21 11:14:44;;;;;;;5.50;4.38;;;5.20;99.90;;;;;;5026873;28;20033;-83
2023/12/21 11:17:11;;;;;;;5.13;3.65;;;5.30;99.90;;;;;;5012386;28;20021;-83
2023/12/21 11:19:39;;;;;;;9.95;5.72;;;5.30;99.90;;;;;;5027675;28;20070;-83
2023/12/21 11:22:05;;;;;;;6.45;4.60;;;5.30;99.90;;;;;;5010414;28;20046;-83
2023/12/21 11:24:31;;;;;;;7.82;4.45;;;5.40;99.90;;;;;;4993832;28;20036;-83
2023/12/21 11:26:59;;;;;;;5.10;4.43;;;5.40;99.90;;;;;;5026774;28;20120;-83
2023/12/21 11:29:27;;;;;;;4.25;3.08;;;5.40;99.90;;;;;;4994128;28;20412;-83
2023/12/21 11:31:55;;;;;;;3.40;2.58;;;5.40;99.90;;;;;;5010817;28;20045;-82
2023/12/21 11:34:33;;;;;;;2.58;2.20;;;5.40;99.90;;;;;;4993211;28;20038;-83
2023/12/21 11:37:37;;;;;;;4.65;2.50;;;5.40;99.90;;;;;;5009840;28;20034;-82
2023/12/21 11:40:04;;;;;;;4.38;3.28;;;5.50;99.90;;;;;;4972947;28;20038;-83
2023/12/21 11:42:37;;;;;;;5.70;4.70;;;5.50;99.90;;;;;;4990060;28;20138;-83
2023/12/21 11:45:07;;;;;;;5.30;3.95;;;5.50;99.90;;;;;;4995948;28;20033;-83
2023/12/21 11:47:34;;;;;;;2.75;1.70;;;5.50;99.90;;;;;;5009366;28;20087;-83
2023/12/21 11:50:20;;;;;;;5.00;4.18;;;5.50;99.90;;;;;;5025971;28;20095;-83
2023/12/21 11:52:47;;;;;;;3.28;2.72;;;5.50;99.90;;;;;;4993544;28;20038;-83
2023/12/21 11:55:26;;;;;;;3.28;2.33;;;5.60;99.90;;;;;;5025886;28;20407;-83
2023/12/21 11:58:18;;;;;;;1.95;1.67;;;5.60;99.90;;;;;;5026127;28;20128;-83
2023/12/21 12:00:48;;;;;;;4.47;2.90;;;5.60;99.90;;;;;;5026268;28;20458;-83
2023/12/21 12:03:16;;;;;;;1.85;1.52;;;5.60;99.90;;;;;;4994142;28;20253;-83
2023/12/21 12:05:42;;;;;;;4.35;1.70;;;5.60;99.90;;;;;;5026128;28;20041;-83
2023/12/21 12:08:08;;;;;;;2.58;2.05;;;5.60;99.90;;;;;;5009995;28;20030;-83
2023/12/21 12:10:34;;;;;;;2.20;1.63;;;5.60;99.90;;;;;;5009748;28;20088;-82
2023/12/21 12:13:01;;;;;;;1.77;1.30;;;5.60;99.90;;;;;;5008916;28;20036;-83
2023/12/21 12:15:27;;;;;;;2.45;1.70;;;5.70;99.90;;;;;;4992541;28;20034;-83
2023/12/21 12:18:00;;;;;;;3.03;2.22;;;5.70;99.90;;;;;;4993202;28;20497;-83
2023/12/21 12:20:25;;;;;;;1.83;1.35;;;5.70;99.90;;;;;;5009702;28;20408;-83
2023/12/21 12:22:54;;;;;;;1.15;1.00;;;5.80;99.90;;;;;;5009746;28;20038;-83
2023/12/21 12:25:20;;;;;;;1.60;1.42;;;5.70;99.90;;;;;;5009641;28;20038;-83
2023/12/21 12:27:47;;;;;;;1.55;1.38;;;5.70;99.90;;;;;;5009980;28;20546;-83
2023/12/21 12:30:13;;;;;;;1.85;1.25;;;5.70;99.90;;;;;;5026064;28;20745;-83
2023/12/21 12:32:39;;;;;;;2.67;1.40;;;5.70;99.90;;;;;;4994182;28;20130;-83
2023/12/21 12:35:07;;;;;;;3.38;2.17;;;5.70;99.90;;;;;;4997603;28;20121;-83